Time;durP1;ratioP1;P1;durP2;ratioP2;P2;SDS_P1;SDS_P2;PMS_P1;PMS_P2;Temp;Humidity;BMP_temperature;BMP_pressure;BME280_temperature;BME280_humidity;BME280_pressure;Samples;Min_cycle;Max_cycle;Signal;HPM_P1;HPM_P2
2021/07/26 00:01:59;;;;;;;6.32;1.95;;;;;;;20.08;67.39;100296.38;5043497;28;20037;-60
2021/07/26 00:04:26;;;;;;;6.05;2.38;;;;;;;19.93;67.49;100274.38;5032721;28;20108;-60
2021/07/26 00:06:53;;;;;;;4.07;1.95;;;;;;;19.98;67.50;100296.81;5037167;28;20136;-65
2021/07/26 00:09:20;;;;;;;4.88;2.25;;;;;;;19.93;67.61;100299.88;5040497;28;20099;-69
2021/07/26 00:11:46;;;;;;;5.68;2.00;;;;;;;19.86;67.55;100288.25;5046839;28;20468;-70
2021/07/26 00:14:14;;;;;;;4.47;2.28;;;;;;;19.65;67.50;100272.13;5040158;28;20123;-72
2021/07/26 00:16:40;;;;;;;5.85;2.60;;;;;;;19.73;67.87;100290.25;5035269;28;20052;-63
2021/07/26 00:19:07;;;;;;;6.90;2.28;;;;;;;19.53;67.74;100263.59;5043936;28;20083;-63
2021/07/26 00:21:34;;;;;;;4.40;2.50;;;;;;;19.68;67.61;100303.78;5055079;28;20401;-63
2021/07/26 00:24:01;;;;;;;5.88;2.55;;;;;;;19.60;67.96;100292.16;5039374;28;20172;-62
2021/07/26 00:26:27;;;;;;;5.57;2.67;;;;;;;19.64;68.24;100293.16;5036864;28;20588;-63
2021/07/26 00:28:54;;;;;;;6.32;2.22;;;;;;;19.62;68.08;100294.63;5037684;28;20116;-63
2021/07/26 00:31:21;;;;;;;6.75;2.45;;;;;;;19.50;68.08;100280.44;5048222;28;20080;-61
2021/07/26 00:34:19;;;;;;;7.50;2.80;;;;;;;19.58;68.23;100288.03;5037898;28;20127;-61
2021/07/26 00:36:47;;;;;;;8.38;3.63;;;;;;;19.60;68.28;100289.34;5039941;28;20124;-61
2021/07/26 00:39:16;;;;;;;6.40;3.65;;;;;;;19.58;68.56;100286.00;5041097;28;20490;-61
2021/07/26 00:41:44;;;;;;;7.13;3.60;;;;;;;19.61;68.50;100288.16;5046927;28;20392;-61
2021/07/26 00:44:11;;;;;;;7.53;3.33;;;;;;;19.54;68.35;100276.56;5043055;28;20083;-62
2021/07/26 00:46:38;;;;;;;8.15;3.75;;;;;;;19.61;68.47;100287.31;5039514;28;20120;-62
2021/07/26 00:49:08;;;;;;;7.70;3.30;;;;;;;19.58;68.55;100280.34;5033318;28;20493;-62
2021/07/26 00:51:37;;;;;;;7.40;3.53;;;;;;;19.55;68.73;100277.38;5044059;28;20129;-63
2021/07/26 00:54:04;;;;;;;6.82;3.42;;;;;;;19.45;68.99;100272.16;5039650;28;20124;-61
2021/07/26 00:56:32;;;;;;;10.27;4.00;;;;;;;19.32;69.37;100282.59;5036200;28;20053;-61
2021/07/26 00:58:59;;;;;;;8.07;4.05;;;;;;;19.14;70.14;100279.94;5035726;28;20073;-61
2021/07/26 01:01:26;;;;;;;10.32;5.22;;;;;;;19.14;69.84;100285.59;5045231;28;20152;-62
2021/07/26 01:03:54;;;;;;;8.63;4.43;;;;;;;19.09;70.37;100288.59;5039491;28;20057;-62
2021/07/26 01:06:21;;;;;;;10.88;4.53;;;;;;;19.01;70.55;100280.16;5039128;28;20045;-61
2021/07/26 01:08:48;;;;;;;11.95;4.63;;;;;;;19.01;70.32;100281.03;5035703;28;20041;-63
2021/07/26 01:11:15;;;;;;;8.88;4.47;;;;;;;18.97;70.75;100262.22;5051547;28;20084;-63
2021/07/26 01:13:43;;;;;;;10.90;5.75;;;;;;;19.18;70.35;100278.06;5040804;28;20088;-61
2021/07/26 01:16:10;;;;;;;11.70;5.82;;;;;;;19.15;70.32;100269.44;5030861;28;20111;-61
2021/07/26 01:18:37;;;;;;;11.50;5.60;;;;;;;19.22;70.58;100263.22;5034221;28;20132;-61
2021/07/26 01:21:08;;;;;;;15.68;6.57;;;;;;;19.42;70.21;100293.50;5033931;28;20133;-62
2021/07/26 01:23:40;;;;;;;13.02;6.13;;;;;;;19.35;70.65;100262.06;5041775;28;20128;-61
2021/07/26 01:26:09;;;;;;;7.97;4.80;;;;;;;19.59;70.38;100284.84;5039169;28;20449;-61
2021/07/26 01:28:39;;;;;;;11.10;5.70;;;;;;;19.46;70.19;100249.16;5046250;28;20115;-61
2021/07/26 01:31:06;;;;;;;11.90;4.60;;;;;;;19.75;70.12;100281.38;5042751;28;20045;-64
2021/07/26 01:33:34;;;;;;;9.27;4.82;;;;;;;19.77;70.22;100279.03;5044486;28;20092;-63
2021/07/26 01:36:00;;;;;;;13.20;5.03;;;;;;;19.78;70.30;100275.03;5031100;28;20549;-63
2021/07/26 01:38:27;;;;;;;14.35;4.93;;;;;;;19.92;70.22;100283.22;5044687;28;20127;-62
2021/07/26 01:41:00;;;;;;;10.52;6.13;;;;;;;20.02;69.97;100280.75;5042607;28;20465;-62
2021/07/26 01:43:32;;;;;;;17.13;5.53;;;;;;;19.99;69.88;100264.44;5044082;28;20577;-62
2021/07/26 01:46:38;;;;;;;10.82;6.53;;;;;;;20.03;69.65;100267.41;5043779;28;20444;-62
2021/07/26 01:49:11;;;;;;;11.18;5.38;;;;;;;19.98;69.65;100268.47;5063307;28;20069;-61
2021/07/26 01:51:40;;;;;;;10.63;5.30;;;;;;;19.94;69.64;100270.34;5033028;28;20053;-61
2021/07/26 01:54:07;;;;;;;11.43;4.95;;;;;;;19.83;69.77;100255.00;5035464;28;20199;-61
2021/07/26 01:56:35;;;;;;;12.20;5.05;;;;;;;19.85;69.79;100284.59;5039409;28;20038;-61
2021/07/26 01:59:03;;;;;;;10.13;5.45;;;;;;;19.82;69.84;100275.97;5041818;28;20103;-61
2021/07/26 02:01:30;;;;;;;9.50;5.78;;;;;;;19.78;69.99;100280.69;5037450;28;20498;-61
2021/07/26 02:03:57;;;;;;;8.15;4.80;;;;;;;19.74;69.71;100268.41;5044072;28;20072;-61
2021/07/26 02:06:25;;;;;;;9.32;4.72;;;;;;;19.73;69.87;100275.25;5039588;28;20124;-61
2021/07/26 02:08:52;;;;;;;12.98;5.70;;;;;;;19.59;69.89;100253.69;5043581;28;20477;-61
2021/07/26 02:11:22;;;;;;;11.73;5.78;;;;;;;19.76;70.07;100271.69;5044372;28;20041;-61
2021/07/26 02:13:49;;;;;;;11.38;5.80;;;;;;;19.62;70.01;100247.34;5036784;28;20080;-61
2021/07/26 02:16:16;;;;;;;12.55;6.07;;;;;;;19.62;70.18;100261.50;5037073;28;20041;-61
2021/07/26 02:18:43;;;;;;;9.82;5.75;;;;;;;19.53;70.18;100255.09;5046058;28;20092;-61
2021/07/26 02:21:10;;;;;;;12.73;6.97;;;;;;;19.55;70.68;100258.38;5048626;28;20504;-61
2021/07/26 02:23:37;;;;;;;11.45;6.15;;;;;;;19.49;70.31;100258.97;5039551;28;20136;-60
2021/07/26 02:26:04;;;;;;;11.55;6.95;;;;;;;19.56;70.36;100257.22;5039660;28;20129;-60
2021/07/26 02:28:32;;;;;;;12.98;6.60;;;;;;;19.57;70.36;100258.88;5041510;28;20140;-60
2021/07/26 02:30:58;;;;;;;12.55;5.68;;;;;;;19.57;70.31;100253.22;5042869;28;20124;-62
2021/07/26 02:33:25;;;;;;;11.85;6.30;;;;;;;19.55;70.43;100254.72;5049694;28;20472;-61
2021/07/26 02:35:52;;;;;;;11.73;6.03;;;;;;;19.36;70.50;100230.59;5049401;28;20507;-62
2021/07/26 02:38:19;;;;;;;11.57;6.07;;;;;;;19.51;70.80;100254.59;5041439;28;20060;-62
2021/07/26 02:40:46;;;;;;;11.68;6.07;;;;;;;19.50;70.67;100235.13;5048788;28;20076;-60
2021/07/26 02:43:13;;;;;;;14.38;6.07;;;;;;;19.59;70.87;100265.03;5048829;28;20548;-58
2021/07/26 02:45:39;;;;;;;13.45;5.50;;;;;;;19.49;70.65;100256.97;5049138;28;20132;-58
2021/07/26 02:48:06;;;;;;;10.27;6.15;;;;;;;19.53;70.66;100266.41;5047057;28;20488;-58
2021/07/26 02:50:33;;;;;;;11.52;5.55;;;;;;;19.44;70.64;100247.84;5043434;28;20128;-58
2021/07/26 02:53:00;;;;;;;13.88;6.55;;;;;;;19.48;70.91;100241.13;5037645;28;20114;-59
2021/07/26 02:55:29;;;;;;;11.15;5.57;;;;;;;19.56;70.51;100245.91;5038839;28;20041;-60
2021/07/26 02:57:58;;;;;;;12.40;5.97;;;;;;;19.57;70.17;100241.88;5036519;28;20120;-60
2021/07/26 03:00:26;;;;;;;11.93;5.53;;;;;;;19.61;70.20;100248.50;5037358;28;20080;-59
2021/07/26 03:02:53;;;;;;;14.38;5.55;;;;;;;19.55;70.25;100241.38;5042064;28;20091;-59
2021/07/26 03:05:20;;;;;;;12.15;5.60;;;;;;;19.66;69.84;100267.34;5047782;28;20073;-61
2021/07/26 03:07:46;;;;;;;12.20;6.43;;;;;;;19.68;69.84;100264.13;5044165;28;20511;-61
2021/07/26 03:10:13;;;;;;;12.98;5.55;;;;;;;19.67;69.54;100270.97;5042369;28;20124;-61
2021/07/26 03:12:40;;;;;;;12.02;6.40;;;;;;;19.63;69.54;100274.50;5042943;28;20132;-61
2021/07/26 03:15:08;;;;;;;11.82;5.47;;;;;;;19.57;69.65;100266.53;5051776;28;20083;-61
2021/07/26 03:17:37;;;;;;;11.98;5.72;;;;;;;19.61;69.40;100268.31;5059586;28;20054;-61
2021/07/26 03:20:06;;;;;;;11.38;6.22;;;;;;;19.52;69.57;100250.59;5036263;28;20137;-61
2021/07/26 03:22:58;;;;;;;12.38;5.80;;;;;;;19.52;69.65;100261.09;5046097;28;20072;-62
2021/07/26 03:25:27;;;;;;;11.68;5.57;;;;;;;19.53;69.46;100269.25;5046720;28;20128;-62
2021/07/26 03:27:55;;;;;;;13.63;5.95;;;;;;;19.39;69.72;100248.91;5046606;28;20091;-62
2021/07/26 03:30:22;;;;;;;13.63;6.47;;;;;;;19.44;69.58;100265.66;5040560;28;20083;-61
2021/07/26 03:32:49;;;;;;;16.48;7.30;;;;;;;19.39;69.52;100248.91;5043915;28;20087;-62
2021/07/26 03:35:18;;;;;;;12.18;5.68;;;;;;;19.54;69.77;100265.22;5051898;28;20128;-61
2021/07/26 03:37:45;;;;;;;16.20;6.15;;;;;;;19.53;69.92;100266.41;5046319;28;20546;-62
2021/07/26 03:40:13;;;;;;;11.13;5.82;;;;;;;19.45;69.85;100250.31;5042653;28;20135;-62
2021/07/26 03:42:41;;;;;;;11.93;6.22;;;;;;;19.59;70.04;100267.03;5047183;28;20127;-62
2021/07/26 03:45:11;;;;;;;11.35;4.88;;;;;;;19.60;69.88;100263.84;5038384;28;20129;-62
2021/07/26 03:47:38;;;;;;;;;;;;;;;19.52;70.14;100261.09;5043729;28;20144;-62
2021/07/26 03:50:10;;;;;;;9.35;4.80;;;;;;;19.48;70.34;100266.63;5047759;28;20027;-62
2021/07/26 03:52:53;;;;;;;11.43;5.63;;;;;;;19.30;70.47;100260.28;5045399;28;20132;-65
2021/07/26 03:55:28;;;;;;;10.98;6.00;;;;;;;19.23;70.81;100256.38;5047866;28;20136;-62
2021/07/26 03:57:55;;;;;;;10.02;6.05;;;;;;;19.09;71.08;100237.66;5044502;28;20175;-62
2021/07/26 04:00:24;;;;;;;14.65;7.15;;;;;;;19.18;71.22;100258.25;5044994;28;20092;-68
2021/07/26 04:03:36;;;;;;;13.70;5.80;;;;;;;19.16;71.09;100260.56;5034512;28;20133;-66
2021/07/26 04:08:24;;;;;;;11.73;6.25;;;;;;;19.23;70.98;100262.03;5050718;28;20463;-67
2021/07/26 04:10:59;;;;;;;14.93;7.13;;;;;;;19.20;71.40;100266.38;5050975;28;20087;-67
2021/07/26 04:13:26;;;;;;;14.98;6.47;;;;;;;19.29;71.06;100280.47;5036951;28;20069;-68
2021/07/26 04:15:53;;;;;;;15.00;7.35;;;;;;;19.37;71.00;100282.38;5043366;28;20041;-68
2021/07/26 04:18:20;;;;;;;14.05;6.80;;;;;;;19.45;70.96;100281.47;5043684;28;20519;-69
2021/07/26 04:20:47;;;;;;;14.25;7.03;;;;;;;19.55;71.11;100288.72;5047975;28;20076;-69
2021/07/26 04:23:13;;;;;;;11.57;6.47;;;;;;;19.46;70.98;100263.31;5041747;28;20081;-67
2021/07/26 04:25:40;;;;;;;16.17;7.30;;;;;;;19.72;70.94;100282.09;5044876;28;20073;-68
2021/07/26 04:28:07;;;;;;;11.25;6.32;;;;;;;19.63;71.13;100260.34;5034067;28;20121;-69
2021/07/26 04:30:34;;;;;;;15.70;7.38;;;;;;;19.84;70.60;100284.97;5041039;28;20488;-68
2021/07/26 04:33:01;;;;;;;14.52;7.75;;;;;;;19.86;70.69;100293.94;5040851;28;20050;-72
2021/07/26 04:35:28;;;;;;;13.48;6.82;;;;;;;19.91;70.63;100288.06;5037443;28;20245;-72
2021/07/26 04:37:55;;;;;;;13.85;6.22;;;;;;;19.26;70.23;100196.22;5045046;28;20204;-69
2021/07/26 04:40:22;;;;;;;12.07;6.32;;;;;;;19.98;70.19;100299.66;5044254;28;20057;-70
2021/07/26 04:42:49;;;;;;;13.15;6.63;;;;;;;19.97;69.70;100292.34;5049184;28;20052;-67
2021/07/26 04:45:16;;;;;;;15.18;6.53;;;;;;;20.06;69.40;100304.38;5044597;28;20124;-67
2021/07/26 04:47:42;;;;;;;14.68;6.18;;;;;;;19.99;69.48;100287.13;5052767;28;20095;-67
2021/07/26 04:50:10;;;;;;;12.82;6.15;;;;;;;20.09;69.62;100297.19;5041835;28;20452;-67
2021/07/26 04:52:37;;;;;;;12.30;6.00;;;;;;;20.03;69.77;100288.09;5048751;28;20080;-69
2021/07/26 04:55:05;;;;;;;15.07;7.30;;;;;;;20.01;69.58;100286.78;5039933;28;20073;-70
2021/07/26 04:57:32;;;;;;;15.95;7.07;;;;;;;20.11;69.70;100312.69;5047327;28;20278;-67
2021/07/26 04:59:59;;;;;;;14.75;6.55;;;;;;;20.13;69.50;100313.13;5051190;28;20145;-64
2021/07/26 05:02:26;;;;;;;14.57;7.30;;;;;;;20.03;69.28;100298.59;5032799;28;20049;-65
2021/07/26 05:04:53;;;;;;;14.75;6.93;;;;;;;20.09;69.26;100306.50;5043424;28;20049;-62
2021/07/26 05:07:20;;;;;;;12.70;5.82;;;;;;;20.14;69.39;100311.16;5038792;28;20052;-61
2021/07/26 05:09:47;;;;;;;14.73;6.22;;;;;;;20.18;69.38;100319.78;5044320;28;20559;-61
2021/07/26 05:12:15;;;;;;;13.98;7.05;;;;;;;20.15;69.08;100321.31;5044296;28;20127;-61
2021/07/26 05:14:43;;;;;;;13.10;6.25;;;;;;;20.16;69.11;100307.94;5055773;28;20524;-62
2021/07/26 05:17:10;;;;;;;14.68;7.82;;;;;;;20.20;69.03;100314.56;5045975;28;20132;-61
2021/07/26 05:19:37;;;;;;;14.45;6.75;;;;;;;20.10;68.84;100315.84;5041772;28;20132;-61
2021/07/26 05:22:05;;;;;;;11.38;7.22;;;;;;;20.12;69.11;100317.16;5044227;28;20128;-61
2021/07/26 05:24:32;;;;;;;14.82;6.60;;;;;;;20.06;68.92;100320.56;5038744;28;20413;-61
2021/07/26 05:27:01;;;;;;;13.98;6.43;;;;;;;19.90;69.04;100297.75;5040913;28;20064;-61
2021/07/26 05:29:29;;;;;;;12.50;7.07;;;;;;;19.84;69.23;100301.97;5048705;28;20053;-63
2021/07/26 05:31:58;;;;;;;14.10;7.03;;;;;;;19.81;69.44;100305.50;5045652;28;20091;-59
2021/07/26 05:34:26;;;;;;;16.43;7.37;;;;;;;19.83;68.97;100320.97;5041385;28;20051;-63
2021/07/26 05:36:54;;;;;;;16.77;7.93;;;;;;;19.79;69.43;100316.34;5040495;28;20133;-72
2021/07/26 05:39:23;;;;;;;14.27;7.60;;;;;;;19.63;69.30;100310.50;5042529;28;20148;-66
2021/07/26 05:41:51;;;;;;;15.20;8.25;;;;;;;19.72;69.38;100328.22;5038435;28;20094;-68
2021/07/26 05:44:19;;;;;;;17.42;7.75;;;;;;;19.73;69.52;100341.25;5039419;28;20041;-68
2021/07/26 05:46:46;;;;;;;13.65;7.90;;;;;;;19.72;69.47;100338.75;5043271;28;20155;-68
2021/07/26 05:49:13;;;;;;;24.00;8.02;;;;;;;19.74;69.43;100342.06;5045662;28;20136;-67
2021/07/26 05:51:40;;;;;;;19.77;8.77;;;;;;;19.75;69.41;100341.72;5039494;28;20136;-67
2021/07/26 05:54:07;;;;;;;15.80;8.27;;;;;;;19.73;69.78;100338.41;5043194;28;20057;-68
2021/07/26 05:56:37;;;;;;;14.13;7.80;;;;;;;19.75;69.53;100336.03;5040199;28;20128;-68
2021/07/26 05:59:04;;;;;;;17.88;7.55;;;;;;;19.78;69.61;100343.03;5041469;28;20088;-68
2021/07/26 06:04:21;;;;;;;14.95;7.40;;;;;;;19.70;69.72;100330.59;5046460;28;20053;-61
2021/07/26 06:06:52;;;;;;;20.45;7.40;;;;;;;19.64;69.64;100327.16;5039094;28;20076;-58
2021/07/26 06:09:23;;;;;;;13.80;7.88;;;;;;;19.65;69.80;100340.13;5054045;28;20045;-59
2021/07/26 06:11:51;;;;;;;16.52;8.00;;;;;;;19.62;69.77;100335.16;5046602;28;20132;-60
2021/07/26 06:14:19;;;;;;;14.40;7.40;;;;;;;19.61;69.80;100338.31;5038456;28;20056;-59
2021/07/26 06:16:52;;;;;;;16.35;8.55;;;;;;;19.42;69.95;100325.50;5049566;28;20049;-59
2021/07/26 06:19:20;;;;;;;13.15;7.28;;;;;;;19.60;70.08;100336.66;5042811;28;20124;-62
2021/07/26 06:21:54;;;;;;;19.90;9.20;;;;;;;19.64;69.98;100343.31;5041861;28;20132;-60
2021/07/26 06:24:22;;;;;;;15.65;8.00;;;;;;;19.71;70.08;100348.44;5051203;28;20049;-67
2021/07/26 06:26:53;;;;;;;17.42;8.20;;;;;;;19.72;70.14;100338.75;5049603;28;20485;-68
2021/07/26 06:29:19;;;;;;;;;;;;;;;19.72;69.65;100344.41;5043190;28;20116;-62
2021/07/26 06:31:46;;;;;;;21.50;10.55;;;;;;;19.70;70.22;100341.13;5045963;28;19975;-64
2021/07/26 06:34:13;;;;;;;15.68;8.48;;;;;;;19.62;70.33;100346.47;5041486;28;20095;-63
2021/07/26 06:36:40;;;;;;;20.45;9.43;;;;;;;19.51;70.70;100325.41;5046593;28;20041;-63
2021/07/26 06:39:09;;;;;;;19.92;10.48;;;;;;;19.58;70.81;100334.16;5039684;28;20140;-60
2021/07/26 06:41:37;;;;;;;22.60;9.18;;;;;;;19.45;70.98;100294.81;5043176;28;20077;-63
2021/07/26 06:44:04;;;;;;;12.85;7.60;;;;;;;19.52;70.93;100317.72;5046611;28;20077;-63
2021/07/26 06:46:31;;;;;;;19.25;8.85;;;;;;;19.60;70.79;100336.66;5044141;28;20075;-63
2021/07/26 06:48:58;;;;;;;16.70;8.57;;;;;;;19.73;71.12;100343.25;5041403;28;20144;-64
2021/07/26 06:51:26;;;;;;;15.68;7.72;;;;;;;19.62;71.03;100326.66;5043347;28;20672;-64
2021/07/26 06:53:53;;;;;;;15.55;7.53;;;;;;;19.87;70.97;100353.09;5042972;28;20086;-63
2021/07/26 06:56:20;;;;;;;14.85;7.10;;;;;;;19.91;70.88;100353.25;5052068;28;20083;-63
2021/07/26 06:58:46;;;;;;;11.73;6.18;;;;;;;19.94;70.74;100358.22;5049961;28;20144;-63
2021/07/26 07:01:15;;;;;;;14.77;8.00;;;;;;;19.86;70.71;100333.59;5046479;28;20136;-63
2021/07/26 07:03:43;;;;;;;12.32;6.55;;;;;;;19.84;70.66;100333.13;5036093;28;20405;-63
2021/07/26 07:06:14;;;;;;;12.18;6.03;;;;;;;19.82;70.55;100341.16;5037189;28;20069;-65
2021/07/26 07:08:42;;;;;;;12.98;7.22;;;;;;;19.99;70.37;100363.66;5044187;28;20448;-65
2021/07/26 07:11:14;;;;;;;15.93;6.95;;;;;;;19.97;70.48;100336.84;5042410;28;20049;-66
2021/07/26 07:13:46;;;;;;;9.52;5.40;;;;;;;19.85;70.14;100331.94;5049552;28;20088;-66
2021/07/26 07:16:17;;;;;;;12.00;6.30;;;;;;;20.12;70.18;100373.03;5048112;28;20103;-66
2021/07/26 07:18:45;;;;;;;9.77;5.60;;;;;;;19.86;70.21;100330.78;5042956;28;20105;-66
2021/07/26 07:21:22;;;;;;;13.85;5.72;;;;;;;20.04;70.08;100373.97;5045455;28;20073;-66
2021/07/26 07:23:50;;;;;;;10.80;6.90;;;;;;;19.98;70.33;100381.00;5038078;28;20128;-66
2021/07/26 07:26:19;;;;;;;13.20;6.72;;;;;;;20.08;70.26;100374.91;5046805;28;20907;-66
2021/07/26 07:28:46;;;;;;;13.35;6.38;;;;;;;20.18;70.02;100385.81;5039733;28;20060;-66
2021/07/26 07:31:15;;;;;;;11.13;6.63;;;;;;;20.20;69.57;100360.75;5038456;28;20041;-66
2021/07/26 07:33:42;;;;;;;11.88;5.32;;;;;;;20.26;69.77;100384.88;5045224;28;22525;-66
2021/07/26 07:36:09;;;;;;;11.85;6.53;;;;;;;20.10;69.77;100353.56;5035857;28;20111;-66
2021/07/26 07:38:36;;;;;;;9.95;5.93;;;;;;;20.51;69.57;100387.81;5040795;28;20124;-66
2021/07/26 07:41:05;;;;;;;14.10;6.68;;;;;;;20.70;69.40;100390.09;5040605;28;20119;-66
2021/07/26 07:43:36;;;;;;;10.35;6.18;;;;;;;20.75;68.76;100368.00;5049284;28;20072;-66
2021/07/26 07:46:04;;;;;;;13.02;7.05;;;;;;;21.10;68.76;100393.06;5042795;28;20083;-65
2021/07/26 07:48:33;;;;;;;11.60;6.50;;;;;;;21.34;68.08;100392.25;5042077;28;20050;-65
2021/07/26 07:51:00;;;;;;;12.23;7.13;;;;;;;21.46;67.78;100380.84;5056214;28;20135;-65
2021/07/26 07:53:28;;;;;;;13.88;7.20;;;;;;;21.80;67.07;100398.50;5055846;28;20051;-68
2021/07/26 07:55:55;;;;;;;12.88;7.35;;;;;;;21.98;66.82;100401.88;5037087;28;20069;-67
2021/07/26 07:58:22;;;;;;;11.32;6.85;;;;;;;22.04;66.83;100397.59;5039450;28;20045;-66
2021/07/26 08:00:51;;;;;;;14.55;6.63;;;;;;;21.73;66.51;100352.81;5036650;28;20059;-70
2021/07/26 08:03:20;;;;;;;11.65;7.30;;;;;;;22.26;66.47;100409.59;5042932;28;20112;-70
2021/07/26 08:05:48;;;;;;;13.98;8.07;;;;;;;22.35;65.73;100407.44;5035271;28;20128;-60
2021/07/26 08:08:16;;;;;;;14.73;7.88;;;;;;;22.42;65.77;100387.72;5044877;28;20484;-65
2021/07/26 08:10:44;;;;;;;14.38;8.38;;;;;;;22.57;65.50;100391.78;5043077;28;20095;-64
2021/07/26 08:13:11;;;;;;;11.27;6.75;;;;;;;22.74;65.40;100407.69;5041845;28;20091;-63
2021/07/26 08:15:38;;;;;;;11.27;7.38;;;;;;;22.64;65.01;100389.13;5048028;28;20045;-64
2021/07/26 08:18:06;;;;;;;13.93;6.35;;;;;;;22.87;65.02;100407.22;5038853;28;20112;-64
2021/07/26 08:20:32;;;;;;;10.73;5.70;;;;;;;22.95;64.36;100408.25;5037874;28;20153;-63
2021/07/26 08:22:59;;;;;;;11.38;6.50;;;;;;;23.20;63.94;100414.56;5038822;28;20478;-63
2021/07/26 08:25:28;;;;;;;9.10;5.22;;;;;;;23.31;63.61;100415.63;5034885;28;20160;-64
2021/07/26 08:27:57;;;;;;;10.82;5.72;;;;;;;23.34;63.42;100406.34;5049359;28;20095;-63
2021/07/26 08:30:26;;;;;;;8.55;4.63;;;;;;;23.30;63.06;100393.22;5042986;28;20145;-61
2021/07/26 08:32:58;;;;;;;12.38;5.30;;;;;;;23.47;63.40;100411.94;5037481;28;20045;-65
2021/07/26 08:35:25;;;;;;;8.43;4.90;;;;;;;23.50;62.63;100406.31;5040530;28;20076;-67
2021/07/26 08:37:53;;;;;;;7.97;4.78;;;;;;;23.68;62.53;100412.47;5036755;28;20069;-65
2021/07/26 08:40:22;;;;;;;8.10;4.50;;;;;;;23.94;61.55;100408.16;5042839;28;20119;-78
2021/07/26 08:42:50;;;;;;;8.68;5.28;;;;;;;24.49;60.98;100414.59;5049631;28;20041;-68
2021/07/26 08:45:17;;;;;;;11.40;6.63;;;;;;;25.27;59.67;100418.84;5041646;28;20128;-76
2021/07/26 08:47:45;;;;;;;10.55;6.78;;;;;;;25.88;58.46;100413.19;5036640;28;20053;-72
2021/07/26 08:50:16;;;;;;;7.38;3.65;;;;;;;26.58;56.76;100417.34;5042027;28;20084;-65
2021/07/26 08:52:45;;;;;;;8.38;4.80;;;;;;;26.80;55.64;100418.38;5042456;28;20160;-61
2021/07/26 08:55:15;;;;;;;6.43;3.58;;;;;;;27.23;54.87;100413.06;5052568;28;20080;-62
2021/07/26 08:57:43;;;;;;;7.63;3.85;;;;;;;27.57;54.39;100428.88;5051317;28;20132;-63
2021/07/26 09:00:12;;;;;;;7.72;4.50;;;;;;;28.02;53.79;100423.00;5038334;28;20564;-60
2021/07/26 09:02:48;;;;;;;8.02;4.20;;;;;;;28.34;53.18;100423.13;5049896;28;20072;-59
2021/07/26 09:05:16;;;;;;;6.03;4.07;;;;;;;28.89;51.88;100437.25;5048239;28;20045;-59
2021/07/26 09:07:45;;;;;;;5.53;3.92;;;;;;;29.34;50.39;100425.41;5047162;28;20469;-59
2021/07/26 09:10:22;;;;;;;7.80;4.28;;;;;;;29.72;50.11;100423.72;5043637;28;20077;-59
2021/07/26 09:12:54;;;;;;;5.40;3.65;;;;;;;29.99;49.13;100413.34;5030159;28;20129;-59
2021/07/26 09:15:38;;;;;;;5.40;3.88;;;;;;;30.19;49.02;100433.88;5032873;28;20049;-59
2021/07/26 09:18:10;;;;;;;7.22;4.47;;;;;;;30.14;47.51;100425.63;5035284;28;20108;-59
2021/07/26 09:20:39;;;;;;;10.05;3.40;;;;;;;30.01;47.78;100427.31;5035908;28;20045;-59
2021/07/26 09:23:17;;;;;;;6.82;3.60;;;;;;;29.67;48.42;100421.25;5033140;28;20461;-60
2021/07/26 09:25:45;;;;;;;6.65;4.18;;;;;;;29.77;47.61;100420.41;5040029;28;20136;-60
2021/07/26 09:28:16;;;;;;;6.25;4.05;;;;;;;29.79;46.55;100417.94;5047497;28;20079;-61
2021/07/26 09:30:43;;;;;;;5.55;3.67;;;;;;;30.00;46.90;100440.06;5043238;28;20073;-60
2021/07/26 09:33:23;;;;;;;5.85;3.78;;;;;;;30.15;46.57;100430.13;5039102;28;20153;-58
2021/07/26 09:36:10;;;;;;;6.13;3.90;;;;;;;30.48;46.50;100424.25;5029762;28;20049;-63
2021/07/26 09:38:40;;;;;;;5.63;3.72;;;;;;;30.90;45.17;100431.84;5037219;28;20193;-67
2021/07/26 09:41:08;;;;;;;6.55;3.55;;;;;;;31.08;44.47;100441.19;5038558;28;20041;-67
2021/07/26 09:43:35;;;;;;;6.60;4.38;;;;;;;31.26;44.07;100441.03;5045322;28;20077;-60
2021/07/26 09:46:02;;;;;;;5.47;3.67;;;;;;;31.55;42.85;100446.56;5040104;28;20106;-61
2021/07/26 09:48:31;;;;;;;5.15;3.50;;;;;;;31.76;42.49;100429.03;5037604;28;20097;-61
2021/07/26 09:51:16;;;;;;;7.80;4.40;;;;;;;32.02;42.30;100438.25;5044336;28;20052;-62
2021/07/26 09:53:50;;;;;;;9.60;4.47;;;;;;;31.93;42.23;100421.44;5035390;28;20695;-62
2021/07/26 09:56:17;;;;;;;5.53;4.00;;;;;;;31.99;41.82;100442.81;5036136;28;20370;-63
2021/07/26 09:58:44;;;;;;;5.53;3.72;;;;;;;32.06;41.52;100451.38;5040858;28;20302;-61
2021/07/26 10:01:13;;;;;;;8.10;4.32;;;;;;;32.23;41.18;100440.88;5043655;28;20108;-61
2021/07/26 10:03:43;;;;;;;6.93;4.22;;;;;;;32.30;41.00;100440.78;5045816;28;20045;-63
2021/07/26 10:06:13;;;;;;;6.88;4.68;;;;;;;32.16;40.52;100411.25;5050162;28;20053;-62
2021/07/26 10:08:41;;;;;;;7.00;4.10;;;;;;;32.49;40.38;100436.44;5032017;28;20049;-63
2021/07/26 10:11:09;;;;;;;7.07;4.03;;;;;;;32.68;39.97;100437.00;5031789;28;20128;-63
2021/07/26 10:13:41;;;;;;;7.38;4.63;;;;;;;32.73;39.56;100427.84;5032256;28;20064;-64
2021/07/26 10:16:18;;;;;;;7.93;4.95;;;;;;;32.47;39.09;100427.38;5031209;28;20053;-66
2021/07/26 10:18:46;;;;;;;7.13;4.90;;;;;;;32.44;39.89;100430.31;5049031;28;20045;-68
2021/07/26 10:21:18;;;;;;;8.20;5.18;;;;;;;32.67;39.50;100427.50;5043942;28;20637;-64
2021/07/26 10:23:59;;;;;;;6.43;4.07;;;;;;;32.74;39.43;100418.72;5051647;28;20080;-65
2021/07/26 10:26:35;;;;;;;9.23;4.20;;;;;;;32.99;39.10;100440.66;5051508;28;20153;-63
2021/07/26 10:29:02;;;;;;;7.80;3.97;;;;;;;33.03;38.55;100438.56;5038129;28;20125;-67
2021/07/26 10:31:30;;;;;;;5.95;3.83;;;;;;;33.18;38.46;100448.63;5038226;28;20598;-66
2021/07/26 10:34:04;;;;;;;8.18;4.15;;;;;;;33.31;38.09;100436.44;5046587;28;20140;-65
2021/07/26 10:36:40;;;;;;;5.72;4.05;;;;;;;33.38;38.10;100450.78;5039253;28;20081;-64
2021/07/26 10:39:14;;;;;;;7.03;3.83;;;;;;;33.45;37.83;100439.91;5031528;28;20072;-62
2021/07/26 10:41:44;;;;;;;9.75;4.40;;;;;;;33.60;37.58;100442.56;5034531;28;20077;-62
2021/07/26 10:44:17;;;;;;;7.13;3.78;;;;;;;33.68;37.24;100447.78;5044504;28;20079;-62
2021/07/26 10:46:53;;;;;;;8.75;3.67;;;;;;;33.48;37.02;100444.03;5039153;28;20464;-64
2021/07/26 10:49:20;;;;;;;10.45;4.53;;;;;;;33.47;36.89;100459.72;5041951;28;20060;-65
2021/07/26 10:51:51;;;;;;;7.90;5.10;;;;;;;33.51;37.00;100443.16;5044799;28;20500;-64
2021/07/26 10:54:32;;;;;;;6.80;4.53;;;;;;;33.30;37.45;100449.25;5033730;28;20374;-65
2021/07/26 10:57:03;;;;;;;7.30;4.93;;;;;;;33.52;37.22;100450.56;5033482;28;20069;-65
2021/07/26 10:59:31;;;;;;;6.15;4.30;;;;;;;33.72;36.69;100454.34;5046899;28;20080;-64
2021/07/26 11:02:02;;;;;;;6.95;4.18;;;;;;;33.95;36.73;100453.47;5044613;28;20497;-63
2021/07/26 11:04:32;;;;;;;6.35;4.65;;;;;;;33.96;36.43;100451.41;5050961;28;20056;-66
2021/07/26 11:07:00;;;;;;;10.20;5.93;;;;;;;33.88;36.39;100453.63;5049472;28;20069;-66
2021/07/26 11:09:32;;;;;;;8.00;5.47;;;;;;;33.90;36.79;100458.97;5037487;28;20520;-74
2021/07/26 11:12:02;;;;;;;12.60;5.90;;;;;;;33.84;36.69;100452.84;5038859;28;20100;-66
2021/07/26 11:14:29;;;;;;;9.65;5.18;;;;;;;33.73;36.87;100444.38;5034526;28;20140;-62
2021/07/26 11:17:04;;;;;;;7.82;5.13;;;;;;;33.99;36.87;100438.91;5038743;28;20489;-62
2021/07/26 11:19:40;;;;;;;9.95;6.05;;;;;;;34.34;36.43;100442.38;5039343;28;20580;-62
2021/07/26 11:22:27;;;;;;;11.20;5.60;;;;;;;34.41;36.51;100436.41;5040784;28;20052;-63
2021/07/26 11:24:55;;;;;;;7.60;5.35;;;;;;;34.64;36.02;100447.94;5042408;28;20045;-62
2021/07/26 11:27:21;;;;;;;10.45;6.88;;;;;;;34.61;35.66;100450.91;5044079;28;20077;-63
2021/07/26 11:29:50;;;;;;;9.00;5.47;;;;;;;34.58;35.67;100435.22;5040364;28;20069;-62
2021/07/26 11:32:22;;;;;;;9.70;6.82;;;;;;;34.62;35.71;100435.94;5043934;28;20079;-62
2021/07/26 11:35:01;;;;;;;8.25;5.32;;;;;;;34.42;35.77;100418.56;5045783;28;20099;-62
2021/07/26 11:37:39;;;;;;;9.77;6.25;;;;;;;34.36;35.83;100423.25;5037450;28;20497;-62